Quarry Crusher Run - Columbia 2017

# of participants: 784# of finishers: 692last updated: 3/25/2017 10:23 am
Result Questions?
Award Bib First Name Last Name Race Race Rank Gender Gen Rank Age Age Group AG Rank City ST Gun Time Chip Time Pace Team
2161 ZANDER JEFFCOAT Quarry Crusher Run 1 M 1 13 1-14 1 GILBERT SC 25:46.8 25:46.8 6:58/mile
2032 DREW WILLIAMS Quarry Crusher Run 2 M 2 39 35-39 1 COLUMBIA SC 28:25.2 28:25.2 7:40/mile
2103 MCCRAY WEEKS Quarry Crusher Run 3 M 3 26 25-29 1 SUMTER SC 29:17.8 29:12.6 7:53/mile
1765 JOSEPH KIPROTICH Quarry Crusher Run 4 M 4 30 30-34 1 WEST COLUMBIA SC 29:28.7 29:27.6 7:57/mile
1566 KEN BROOKS Quarry Crusher Run 5 M 5 36 35-39 2 COLUMBIA SC 30:06.4 30:03.9 8:07/mile
1766 CHARLES KNIGHT Quarry Crusher Run 6 M 6 18 15-19 1 ANDERSON SC 30:56.5 30:32.7 8:15/mile
1592 DAN COLE Quarry Crusher Run 7 M 7 51 50-54 1 COLUMBIA SC 31:12.7 31:12.7 8:26/mile
1990 MATTHEW TORCHIA Quarry Crusher Run 8 M 8 27 25-29 2 COLUMBIA SC 31:17.6 31:14.0 8:26/mile
1684 MICHAEL GUIDOTTI Quarry Crusher Run 9 M 9 43 40-44 1 COLUMBIA SC 31:26.8 31:23.3 8:29/mile
1940 KEN SEKLEY Quarry Crusher Run 10 M 10 58 55-59 1 COLUMBIA SC 31:33.6 31:33.6 8:31/mile
2154 JONATHAN ECKSTROM Quarry Crusher Run 11 M 11 31 30-34 2 COLUMBIA SC 31:53.2 31:47.1 8:35/mile
1618 BRUNSON DEPASS Quarry Crusher Run 12 M 12 39 35-39 3 COLUMBIA SC 32:55.0 31:51.9 8:36/mile
2087 RYAN SACKO Quarry Crusher Run 13 M 13 35 35-39 4 COLUMBIA SC 32:30.3 32:29.2 8:46/mile
2039 BRODY WOODCOCK Quarry Crusher Run 14 M 14 12 1-14 2 SUMTER SC 34:25.7 33:13.3 8:58/mile 51ST INTELLIGENCE SQUADRON (WARHAWKS)
1650 BRIAN FISHER Quarry Crusher Run 15 M 15 39 35-39 5 BLYTHEWOOD SC 33:24.9 33:24.9 9:01/mile
1514 BRUCE BALMER Quarry Crusher Run 16 M 16 57 55-59 2 BLYTHEWOOD SC 33:46.2 33:34.0 9:04/mile
1699 BROOKS HARTIN Quarry Crusher Run 17 M 17 13 1-14 3 COLUMBIA SC 33:53.4 33:34.0 9:04/mile
1636 PETE ECKSTROM Quarry Crusher Run 18 M 18 25 25-29 3 COLUMBIA SC 36:21.5 33:38.8 9:05/mile
1920 SARAH ROOF Quarry Crusher Run 19 F 1 27 25-29 1 CHAPIN SC 34:55.2 33:42.5 9:06/mile
2096 ERIC THORNBURG Quarry Crusher Run 20 M 19 38 35-39 6 POWDER SPRINGS GA 34:32.3 34:00.5 9:11/mile
1858 MIKE NININGER Quarry Crusher Run 21 M 20 51 50-54 2 LEXINGTON SC 34:21.7 34:04.5 9:12/mile
2023 DANIEL WEST Quarry Crusher Run 22 M 21 30 30-34 3 ORANGEBURG SC 34:17.0 34:10.3 9:14/mile BROWN AND CALDWELL
1655 LAWRENCE FLYNN Quarry Crusher Run 23 M 22 35 35-39 7 COLUMBIA SC 35:11.2 34:17.9 9:16/mile
1527 JACKSON BETETTE Quarry Crusher Run 24 M 23 12 1-14 4 COLUMBIA SC 34:21.8 34:19.9 9:16/mile
1762 PARKER KING Quarry Crusher Run 25 M 24 46 45-49 1 FLORENCE SC 34:27.1 34:23.0 9:17/mile
1688 SHAUN HALFORD Quarry Crusher Run 26 M 25 38 35-39 8 34:28.2 34:28.2 9:18/mile
1862 JENNIFER OBLINGER Quarry Crusher Run 27 F 2 33 30-34 1 MONCKS CORNER SC 34:40.3 34:40.3 9:22/mile
2052 GENE ZEIGLER Quarry Crusher Run 28 M 26 53 50-54 3 COLUMBIA SC 35:15.9 34:40.6 9:22/mile
1806 ANDREW MCCANN Quarry Crusher Run 29 M 27 13 1-14 5 GREENVILLE SC 34:50.9 34:42.7 9:22/mile
2046 ERNIE YARBOROUGH Quarry Crusher Run 30 M 28 45 45-49 2 COLUMBIA SC 34:49.1 34:43.3 9:23/mile
2059 HENRY CLAY Quarry Crusher Run 31 M 29 56 55-59 3 COLUMBIA SC 35:14.4 34:44.5 9:23/mile
2053 DANTONI ANDREW Quarry Crusher Run 32 M 30 36 35-39 9 LEXINGTON SC 35:05.5 34:49.5 9:24/mile
1968 ADAM STANLEY Quarry Crusher Run 33 M 31 18 15-19 2 BLUFFTON SC 35:16.6 34:52.2 9:25/mile
2174 STEPHEN MARINO Quarry Crusher Run 34 M 32 32 30-34 4 COLUMBIA SC 35:14.7 34:57.3 9:26/mile
1643 CHRISTOPHER FALCONE Quarry Crusher Run 35 M 33 13 1-14 6 COLUMBIA SC 35:27.4 35:01.5 9:27/mile
1907 FRANCES RIPEPI Quarry Crusher Run 36 F 3 24 20-24 1 COLUMBIA SC 35:19.9 35:03.2 9:28/mile
1946 DARBY SHINN Quarry Crusher Run 37 F 4 51 50-54 1 COLUMBIA SC 35:22.6 35:04.1 9:28/mile
2016 JABE WEAVER Quarry Crusher Run 38 M 34 24 20-24 1 COLUMBIA SC 35:22.7 35:06.2 9:29/mile
1781 JUSTIN LINVILLE Quarry Crusher Run 39 M 35 26 25-29 4 COLUMBIA SC 35:18.6 35:07.6 9:29/mile
1546 JOHN BOYD Quarry Crusher Run 40 M 36 44 40-44 2 COLUMBIA SC 35:27.7 35:10.1 9:30/mile
1794 FUMIKO MALAVE Quarry Crusher Run 41 F 5 44 40-44 1 GROVETOWN GA 35:40.2 35:17.5 9:32/mile
1508 ALBERT AMES Quarry Crusher Run 42 M 37 28 25-29 5 HYDE PARK NY 35:38.5 35:21.5 9:33/mile
1779 RICH LINDNER Quarry Crusher Run 43 M 38 52 50-54 4 GILBERT SC 35:42.3 35:24.9 9:34/mile
1866 MYLINDA O'QUINN Quarry Crusher Run 44 F 6 47 45-49 1 WALTERBORO SC 35:28.3 35:28.3 9:35/mile
1818 JULIE MCKINNON Quarry Crusher Run 45 F 7 41 40-44 2 IRMO SC 35:46.3 35:30.5 9:35/mile
1782 JASEN LITTLE Quarry Crusher Run 46 M 39 29 25-29 6 SUMTER SC 37:06.2 35:52.0 9:41/mile
2006 MICHAEL VIRZI Quarry Crusher Run 47 M 40 48 45-49 3 COLUMBIA SC 36:18.8 35:58.6 9:43/mile
1958 JEFFREY SMITH Quarry Crusher Run 48 M 41 39 35-39 10 ORANGEBURG SC 36:05.4 35:59.3 9:43/mile NEFITNESS
1789 JOSEF LUDWIG Quarry Crusher Run 49 M 42 49 45-49 4 BLYTHEWOOD SC 36:20.3 36:02.1 9:44/mile
2030 AVERY WILKS Quarry Crusher Run 50 M 43 23 20-24 2 COLUMBIA SC 36:11.4 36:04.8 9:45/mile
2058 JT CHAMBERS Quarry Crusher Run 51 M 44 29 25-29 7 COLUMBIA SC 36:33.8 36:15.6 9:48/mile
2017 JORDAN WEBSTER Quarry Crusher Run 52 F 8 24 20-24 2 WEST COLUMBIA SC 36:53.5 36:19.2 9:48/mile
1814 SILAS MCEWEN Quarry Crusher Run 53 M 45 33 30-34 5 COLUMBIA SC 37:01.8 36:19.2 9:48/mile ATTACK THE HILL
1807 RYAN MCCANN Quarry Crusher Run 54 M 46 45 45-49 5 GREENVILLE SC 36:33.1 36:24.9 9:50/mile
2071 ANTOINE KELLY Quarry Crusher Run 55 M 47 23 20-24 3 WEST COLUMBIA SC 37:02.4 36:31.3 9:52/mile
1867 SAVANNAH OTT Quarry Crusher Run 56 F 9 23 20-24 3 LEXINGTON SC 37:02.4 36:31.3 9:52/mile
1910 CHANDLER ROBERTS Quarry Crusher Run 57 M 48 18 15-19 3 COLUMBIA SC 36:57.4 36:31.7 9:52/mile
2090 MARK SCHAUMBURG Quarry Crusher Run 58 M 49 35 35-39 11 HONOLULU HI 37:12.6 36:39.6 9:54/mile
1842 MANNY MUNTEANU Quarry Crusher Run 59 M 50 45 45-49 6 COLUMBIA SC 37:22.5 36:40.3 9:54/mile ATTACK THE HILL
1700 RHETT HARTIN Quarry Crusher Run 60 M 51 18 15-19 4 COLUMBIA SC 37:01.0 36:42.0 9:55/mile
2160 KYLE GAWINSKI Quarry Crusher Run 61 M 52 24 20-24 4 COLUMBIA SC 37:34.4 36:43.8 9:55/mile
1635 HARRIS ECKSTROM Quarry Crusher Run 62 M 53 28 25-29 8 CHAPIN SC 36:51.0 36:44.5 9:55/mile
1587 ROXINE CHAPSKI Quarry Crusher Run 63 F 10 28 25-29 2 LEXINGTON SC 37:44.8 36:55.4 9:58/mile
1874 JOSE PATINO Quarry Crusher Run 64 M 54 38 35-39 12 COLUMBIA SC 37:07.0 37:05.7 10:01/mile
2004 LANDON VERANO Quarry Crusher Run 65 M 55 12 1-14 7 LEXINGTON SC 37:26.0 37:14.1 10:03/mile
2175 NOEL SCHUCH Quarry Crusher Run 66 F 11 42 40-44 3 COLUMBIA SC 37:20.4 37:18.2 10:04/mile
2034 JIM WILLIAMS Quarry Crusher Run 67 M 56 57 55-59 4 COLUMBIA SC 37:31.3 37:25.2 10:06/mile
1881 RUBEN PEREZ Quarry Crusher Run 68 M 57 44 40-44 3 COLUMBIA SC 38:39.7 37:27.9 10:07/mile
1911 JON ROBERTSON Quarry Crusher Run 69 M 58 34 30-34 6 COLUMBIA SC 38:39.5 37:27.9 10:07/mile
2003 RICHARD VAUGHT Quarry Crusher Run 70 M 59 28 25-29 9 IRMO SC 37:42.6 37:30.9 10:08/mile
1572 KYLE BURKHOLDER Quarry Crusher Run 71 M 60 27 25-29 10 COLUMBIA SC 38:54.8 37:43.4 10:11/mile
2115 ZACH BRUNSON Quarry Crusher Run 72 M 61 28 25-29 11 COLUMBIA SC 38:53.4 37:46.2 10:12/mile
2044 ROBERT WORLEY Quarry Crusher Run 73 M 62 50 50-54 5 GILBERT SC 38:01.4 37:58.2 10:15/mile
2139 AUBREY RAYMOND Quarry Crusher Run 74 M 63 31 30-34 7 COLUMBIA SC 39:14.5 38:06.3 10:17/mile
1686 GOULD HAGLER Quarry Crusher Run 75 M 64 32 30-34 8 AUGUSTA GA 38:44.3 38:16.0 10:20/mile
1677 KELVIN GORDON Quarry Crusher Run 76 M 65 35 35-39 13 COLUMBIA SC 38:44.8 38:20.3 10:21/mile
1785 CARLOS LOPEZ Quarry Crusher Run 77 M 66 30 30-34 9 SUMTER SC 39:35.4 38:21.0 10:21/mile
2185 DOUGLAS FREEMAN Quarry Crusher Run 78 M 67 35 35-39 14 CHARLOTTE NC 39:19.9 38:21.3 10:21/mile
1658 HR FORD Quarry Crusher Run 79 M 68 45 45-49 7 IRMO SC 39:29.4 38:23.0 10:22/mile
2048 JAKE YOUNG Quarry Crusher Run 80 M 69 26 25-29 12 COLUMBIA SC 38:36.4 38:25.5 10:23/mile
2162 JEFF KIRBY Quarry Crusher Run 81 M 70 46 45-49 8 COLUMBIA SC 38:31.8 38:25.9 10:23/mile
2170 CAYCE WEST Quarry Crusher Run 82 M 71 44 40-44 4 IRMO SC 39:55.3 38:28.3 10:23/mile
2183 MICHAEL BLIZZARD Quarry Crusher Run 83 M 72 32 30-34 10 CAYCE SC 39:24.3 38:32.9 10:25/mile
1522 MICHAEL BEAUDET Quarry Crusher Run 84 M 73 45 45-49 9 SUMTER SC 38:45.0 38:41.2 10:27/mile TEAM RWB
1943 WILLIAM SEYMORE Quarry Crusher Run 85 M 74 36 35-39 15 EASLEY SC 39:47.5 38:44.3 10:28/mile
1649 STEPHANIE FISCHER Quarry Crusher Run 86 F 12 45 45-49 2 BLYTHEWOOD SC 38:56.0 38:45.2 10:28/mile
1639 JOHN EPTING Quarry Crusher Run 87 M 75 32 30-34 11 COLUMBIA SC 39:06.3 38:45.8 10:28/mile BROWN AND CALDWELL
1742 KEVIN P. JEWETT Quarry Crusher Run 88 M 76 56 55-59 5 NORTH CHARLESTON SC 38:53.3 38:45.9 10:28/mile
1903 MATT REID Quarry Crusher Run 89 M 77 35 35-39 16 BARNWELL SC 38:56.6 38:46.5 10:28/mile
2045 CHRIS YANCEY Quarry Crusher Run 90 M 78 36 35-39 17 BARNWELL SC 38:57.5 38:47.1 10:28/mile
1824 SARAH MERRIMAN Quarry Crusher Run 91 F 13 26 25-29 3 COLUMBIA SC 39:08.7 38:55.3 10:31/mile
2037 ERIN WILSON Quarry Crusher Run 92 F 14 31 30-34 2 GASTON SC 39:02.0 38:57.5 10:31/mile
1690 CODY HAMILTON Quarry Crusher Run 93 M 79 31 30-34 12 COLUMBIA SC 39:01.5 38:57.6 10:31/mile
1978 COLEEN STRASBURGER Quarry Crusher Run 94 F 15 55 55-59 1 COLUMBIA SC 39:23.4 39:00.9 10:32/mile
2020 RICHARD WELCH Quarry Crusher Run 95 M 80 44 40-44 5 IRMO SC 39:31.1 39:06.6 10:34/mile
1918 JAVIER ROMERO Quarry Crusher Run 96 M 81 40 40-44 6 COLUMBIA SC 39:40.2 39:07.8 10:34/mile
1534 PETE BIVIANO Quarry Crusher Run 97 M 82 29 25-29 13 CHAPIN SC 40:33.6 39:09.6 10:35/mile
2065 CHRIS GOODMAN Quarry Crusher Run 98 M 83 33 30-34 13 COLUMBIA SC 40:19.0 39:12.2 10:35/mile THE TURTLE HERD
1582 HAYDEN CARTER Quarry Crusher Run 99 M 84 14 1-14 8 BLYTHEWOOD SC 39:50.2 39:14.6 10:36/mile
1578 SARA CAMPBELL Quarry Crusher Run 100 F 16 37 35-39 1 ELGIN SC 39:22.9 39:15.8 10:36/mile